createdAt,value
2019-03-17T00:01:42.340Z,2.17
2019-03-17T00:04:12.807Z,1.80
2019-03-17T00:06:42.621Z,2.03
2019-03-17T00:09:12.491Z,1.70
2019-03-17T00:11:42.336Z,1.83
2019-03-17T00:14:11.977Z,2.90
2019-03-17T00:16:41.764Z,2.37
2019-03-17T00:19:11.435Z,2.10
2019-03-17T00:21:41.239Z,2.37
2019-03-17T00:24:11.051Z,3.40
2019-03-17T00:26:40.876Z,1.93
2019-03-17T00:29:11.749Z,2.10
2019-03-17T00:31:41.424Z,2.50
2019-03-17T00:34:11.291Z,1.80
2019-03-17T00:36:41.188Z,2.40
2019-03-17T00:39:11.360Z,2.50
2019-03-17T00:41:41.195Z,2.20
2019-03-17T00:44:10.982Z,1.73
2019-03-17T00:46:40.818Z,1.80
2019-03-17T00:49:10.888Z,1.50
2019-03-17T00:51:40.599Z,1.90
2019-03-17T00:54:10.374Z,2.17
2019-03-17T00:56:40.181Z,1.73
2019-03-17T00:59:10.425Z,2.83
2019-03-17T01:01:40.044Z,1.60
2019-03-17T01:04:10.300Z,1.83
2019-03-17T01:06:39.919Z,2.00
2019-03-17T01:09:09.977Z,1.83
2019-03-17T01:11:39.527Z,2.47
2019-03-17T01:14:09.981Z,2.17
2019-03-17T01:16:39.687Z,2.13
2019-03-17T01:19:09.528Z,2.23
2019-03-17T01:21:39.063Z,1.47
2019-03-17T01:24:10.367Z,1.40
2019-03-17T01:26:40.143Z,1.73
2019-03-17T01:29:10.548Z,1.90
2019-03-17T01:31:40.402Z,1.90
2019-03-17T01:34:10.339Z,2.00
2019-03-17T01:36:40.080Z,1.93
2019-03-17T01:39:09.890Z,1.70
2019-03-17T01:41:39.686Z,2.17
2019-03-17T01:44:09.316Z,1.60
2019-03-17T01:46:39.459Z,1.87
2019-03-17T01:49:09.087Z,1.70
2019-03-17T01:51:38.772Z,2.53
2019-03-17T01:54:08.725Z,2.47
2019-03-17T01:56:38.385Z,1.87
2019-03-17T01:59:08.027Z,2.10
2019-03-17T02:01:37.827Z,2.20
2019-03-17T02:04:08.363Z,2.23
2019-03-17T02:06:38.351Z,2.50
2019-03-17T02:09:08.696Z,2.57
2019-03-17T02:11:38.508Z,2.30
2019-03-17T02:14:08.222Z,2.33
2019-03-17T02:16:38.104Z,2.50
2019-03-17T02:19:07.751Z,1.70
2019-03-17T02:21:37.563Z,2.00
2019-03-17T02:24:07.171Z,2.23
2019-03-17T02:26:37.080Z,1.90
2019-03-17T02:29:06.915Z,1.80
2019-03-17T02:31:36.699Z,2.00
2019-03-17T02:34:06.389Z,2.50
2019-03-17T02:36:36.207Z,2.30
2019-03-17T02:39:07.046Z,2.10
2019-03-17T02:41:36.886Z,2.00
2019-03-17T02:44:06.532Z,2.20
2019-03-17T02:46:36.242Z,1.80
2019-03-17T02:49:06.282Z,1.90
2019-03-17T02:51:35.973Z,4.63
2019-03-17T02:54:05.835Z,4.60
2019-03-17T02:56:35.521Z,1.87
2019-03-17T02:59:05.428Z,1.63
2019-03-17T03:01:35.803Z,2.00
2019-03-17T03:04:06.403Z,1.87
2019-03-17T03:06:36.194Z,2.43
2019-03-17T03:09:07.492Z,2.10
2019-03-17T03:11:37.884Z,2.00
2019-03-17T03:14:07.573Z,2.23
2019-03-17T03:16:37.202Z,1.80
2019-03-17T03:19:06.936Z,1.70
2019-03-17T03:21:36.632Z,1.73
2019-03-17T03:24:07.742Z,1.90
2019-03-17T03:26:37.349Z,1.70
2019-03-17T03:29:08.096Z,1.73
2019-03-17T03:31:37.812Z,1.63
2019-03-17T03:34:07.713Z,1.47
2019-03-17T03:36:37.635Z,1.90
2019-03-17T03:39:08.177Z,1.93
2019-03-17T03:41:37.748Z,2.53
2019-03-17T03:44:07.475Z,2.40
2019-03-17T03:46:55.381Z,2.20
2019-03-17T08:49:27.303Z,1.70
2019-03-17T08:51:56.995Z,1.23
2019-03-17T08:54:27.184Z,1.20
2019-03-17T08:56:57.055Z,1.27
2019-03-17T08:59:27.287Z,1.20
2019-03-17T09:01:56.951Z,1.20
2019-03-17T09:04:27.283Z,1.10
2019-03-17T09:06:57.338Z,1.67
2019-03-17T09:09:27.389Z,0.90
2019-03-17T09:11:56.999Z,1.00
2019-03-17T09:14:27.591Z,0.90
2019-03-17T09:16:57.679Z,1.33
2019-03-17T09:19:27.331Z,0.90
2019-03-17T09:21:57.560Z,0.90
2019-03-17T09:24:27.727Z,1.13
2019-03-17T09:26:57.503Z,1.30
2019-03-17T09:29:27.170Z,1.00
2019-03-17T09:31:57.015Z,1.70
2019-03-17T09:34:27.282Z,1.30
2019-03-17T09:36:57.305Z,1.27
2019-03-17T09:39:27.552Z,1.33
2019-03-17T09:41:57.535Z,1.27
2019-03-17T09:44:28.005Z,1.07
2019-03-17T09:46:58.262Z,1.00
2019-03-17T09:49:28.658Z,1.10
2019-03-17T09:51:59.073Z,0.90
2019-03-17T09:54:29.402Z,1.03
2019-03-17T09:56:59.631Z,1.27
2019-03-17T09:59:29.295Z,1.00
2019-03-17T10:01:59.694Z,1.30
2019-03-17T10:04:29.368Z,0.90
2019-03-17T10:06:59.064Z,1.00
2019-03-17T10:09:29.242Z,1.10
2019-03-17T10:11:58.951Z,1.30
2019-03-17T10:14:28.988Z,1.10
2019-03-17T10:16:58.839Z,0.97
2019-03-17T10:19:28.954Z,1.00
2019-03-17T10:21:59.690Z,0.90
2019-03-17T10:24:29.396Z,1.00
2019-03-17T10:26:58.994Z,1.00
2019-03-17T10:29:29.341Z,1.17
2019-03-17T10:31:58.938Z,1.17
2019-03-17T10:34:29.235Z,1.03
2019-03-17T10:36:58.935Z,0.90
2019-03-17T10:39:28.786Z,1.07
2019-03-17T10:41:59.181Z,1.30
2019-03-17T10:44:29.436Z,1.30
2019-03-17T10:46:59.117Z,0.97
2019-03-17T10:49:28.831Z,0.87
2019-03-17T10:51:58.905Z,1.30
2019-03-17T10:54:29.618Z,0.90
2019-03-17T10:56:59.434Z,0.83
2019-03-17T10:59:29.223Z,1.10
2019-03-17T11:01:59.753Z,1.07
2019-03-17T11:04:29.675Z,5.70
2019-03-17T11:07:01.427Z,1.80
2019-03-17T11:09:31.360Z,1.43
2019-03-17T11:12:01.555Z,1.00
2019-03-17T11:14:31.375Z,0.90
2019-03-17T11:17:01.671Z,1.30
2019-03-17T11:19:31.510Z,1.20
2019-03-17T11:22:01.231Z,2.17
2019-03-17T11:24:30.823Z,1.13
2019-03-17T11:27:00.751Z,0.90
2019-03-17T11:29:30.733Z,0.90
2019-03-17T11:32:00.441Z,0.87
2019-03-17T11:34:30.877Z,1.23
2019-03-17T11:37:01.212Z,1.50
2019-03-17T11:39:37.853Z,1.57
2019-03-17T11:42:02.842Z,1.47
2019-03-17T11:44:32.835Z,1.37
2019-03-17T11:47:02.935Z,1.50
2019-03-17T11:49:32.883Z,1.80
2019-03-17T11:52:03.081Z,1.90
2019-03-17T11:54:32.875Z,1.73
2019-03-17T11:57:02.836Z,1.50
2019-03-17T11:59:33.016Z,1.83
2019-03-17T15:45:23.630Z,2.63
2019-03-17T15:47:53.639Z,2.90
2019-03-17T15:50:24.942Z,2.83
2019-03-17T15:52:55.281Z,2.40
2019-03-17T15:55:27.968Z,2.90
2019-03-17T15:57:58.413Z,2.97
2019-03-17T16:00:30.351Z,3.07
2019-03-17T16:03:01.185Z,3.37
2019-03-17T16:05:30.714Z,3.53
2019-03-17T16:08:00.851Z,3.13
2019-03-17T16:10:31.939Z,2.97
2019-03-17T16:13:02.241Z,3.20
2019-03-17T16:15:32.942Z,3.20
2019-03-17T16:18:03.773Z,2.80
2019-03-17T16:20:36.529Z,3.00
2019-03-17T16:23:08.735Z,2.87
2019-03-17T16:25:38.806Z,3.20
2019-03-17T16:28:11.880Z,3.03
2019-03-17T16:30:42.645Z,3.67
2019-03-17T16:33:13.238Z,3.10
2019-03-17T16:35:42.967Z,3.33
2019-03-17T16:38:13.628Z,3.10
2019-03-17T16:40:43.925Z,2.97
2019-03-17T16:43:14.548Z,3.17
2019-03-17T16:45:44.815Z,2.83
2019-03-17T16:48:15.256Z,2.40
2019-03-17T16:50:45.173Z,3.43
2019-03-17T16:53:15.720Z,2.70
2019-03-17T16:55:45.679Z,3.40
2019-03-17T16:58:16.183Z,3.70
2019-03-17T17:00:45.900Z,2.80
2019-03-17T17:03:16.459Z,3.60
2019-03-17T17:05:46.866Z,3.10
2019-03-17T17:08:17.063Z,2.30
2019-03-17T17:10:50.153Z,1.77
2019-03-17T17:13:19.247Z,1.40
2019-03-17T17:15:48.909Z,1.17
2019-03-17T17:18:19.753Z,1.20
2019-03-17T17:20:55.416Z,1.30
2019-03-17T17:23:25.965Z,1.87
2019-03-17T17:25:56.232Z,1.10
2019-03-17T17:28:31.859Z,1.73
2019-03-17T17:31:02.137Z,1.60
2019-03-17T17:33:33.395Z,1.27
2019-03-17T17:36:03.140Z,1.17
2019-03-17T17:38:33.647Z,1.30
2019-03-17T17:41:04.196Z,1.33
2019-03-17T17:43:35.378Z,1.57
2019-03-17T17:46:05.298Z,1.30
2019-03-17T17:48:34.907Z,1.77
2019-03-17T17:51:05.271Z,2.20
2019-03-17T17:53:35.645Z,1.50
2019-03-17T17:56:06.031Z,1.50
2019-03-17T17:58:36.466Z,1.70
2019-03-17T18:01:07.976Z,2.07
2019-03-17T18:03:50.779Z,1.40
2019-03-17T18:06:10.044Z,1.33
2019-03-17T18:08:39.822Z,1.77
2019-03-17T18:11:09.655Z,1.20
2019-03-17T18:13:40.196Z,1.47
2019-03-17T18:16:10.464Z,1.70
2019-03-17T18:18:40.803Z,1.70
2019-03-17T18:21:11.136Z,2.07
2019-03-17T18:23:41.694Z,2.00
2019-03-17T18:26:11.870Z,1.90
2019-03-17T18:28:41.630Z,1.77
2019-03-17T18:31:12.150Z,1.90
2019-03-17T18:33:43.229Z,1.93
2019-03-17T18:36:13.742Z,1.80
2019-03-17T18:38:43.576Z,2.20
2019-03-17T18:41:13.423Z,2.00
2019-03-17T18:43:44.053Z,1.60
2019-03-17T18:46:14.287Z,1.50
2019-03-17T18:48:44.807Z,2.10
2019-03-17T18:51:14.928Z,2.53
2019-03-17T18:53:45.438Z,2.03
2019-03-17T18:56:15.475Z,2.20
2019-03-17T18:58:45.987Z,1.70
2019-03-17T19:01:15.651Z,1.50
2019-03-17T19:03:48.918Z,1.80
2019-03-17T19:06:19.116Z,1.70
2019-03-17T19:08:49.733Z,1.57
2019-03-17T19:11:20.069Z,1.53
2019-03-17T19:13:51.240Z,2.13
2019-03-17T19:16:22.515Z,1.90
2019-03-17T19:18:53.027Z,2.00
2019-03-17T19:21:24.035Z,2.10
2019-03-17T19:23:54.505Z,1.60
2019-03-17T19:26:27.955Z,1.73
2019-03-17T19:28:58.338Z,2.27
2019-03-17T19:31:29.500Z,1.83
2019-03-17T19:33:59.345Z,2.00
2019-03-17T19:36:29.984Z,2.37
2019-03-17T19:39:00.354Z,1.90
2019-03-17T19:41:31.091Z,1.87
2019-03-17T19:44:01.373Z,2.53
2019-03-17T19:46:31.934Z,2.17
2019-03-17T19:49:02.443Z,1.80
2019-03-17T19:51:33.249Z,2.40
2019-03-17T19:54:03.512Z,1.80
2019-03-17T19:56:33.994Z,2.17
2019-03-17T19:59:04.335Z,2.47
2019-03-17T20:01:34.870Z,2.10
2019-03-17T20:04:05.273Z,1.90
2019-03-17T20:06:35.615Z,2.20
2019-03-17T20:09:07.374Z,1.60
2019-03-17T20:11:37.764Z,1.77
2019-03-17T20:14:07.706Z,2.53
2019-03-17T20:16:38.266Z,2.00
2019-03-17T20:19:08.699Z,1.50
2019-03-17T20:21:39.171Z,1.77
2019-03-17T20:24:09.632Z,2.10
2019-03-17T20:26:40.152Z,1.63
2019-03-17T20:29:10.972Z,1.97
2019-03-17T20:31:41.335Z,1.87
2019-03-17T20:34:11.667Z,1.67
2019-03-17T20:36:42.376Z,1.50
2019-03-17T20:39:11.997Z,2.00
2019-03-17T20:41:41.756Z,1.90
2019-03-17T20:44:12.060Z,1.80
2019-03-17T20:46:42.554Z,1.23
2019-03-17T20:49:12.553Z,1.90
2019-03-17T20:51:42.907Z,1.77
2019-03-17T20:54:13.171Z,1.90
2019-03-17T20:56:43.594Z,1.30
2019-03-17T20:59:13.766Z,2.00
2019-03-17T21:01:44.275Z,1.60
2019-03-17T21:04:14.642Z,1.80
2019-03-17T21:06:45.118Z,2.00
2019-03-17T21:09:14.894Z,1.30
2019-03-17T21:11:44.831Z,1.50
2019-03-17T21:14:15.417Z,2.53
2019-03-17T21:16:45.754Z,1.50
2019-03-17T21:19:15.552Z,1.70
2019-03-17T21:21:45.429Z,1.73
2019-03-17T21:24:15.191Z,1.40
2019-03-17T21:26:45.244Z,1.60
2019-03-17T21:29:15.639Z,1.50
2019-03-17T21:31:46.151Z,1.40
2019-03-17T21:34:16.734Z,1.40
2019-03-17T21:36:47.012Z,1.70
2019-03-17T21:39:18.058Z,1.80
2019-03-17T21:41:47.839Z,1.70
2019-03-17T21:44:17.607Z,1.30
2019-03-17T21:46:47.894Z,1.70
2019-03-17T21:49:17.725Z,1.77
2019-03-17T21:51:47.997Z,1.43
2019-03-17T21:54:18.152Z,1.40
2019-03-17T21:56:48.683Z,1.30
2019-03-17T21:59:20.119Z,1.40
2019-03-17T22:01:50.466Z,1.60
2019-03-17T22:04:20.391Z,1.30
2019-03-17T22:06:50.692Z,1.73
2019-03-17T22:09:20.476Z,1.40
2019-03-17T22:11:50.999Z,1.57
2019-03-17T22:14:21.443Z,1.50
2019-03-17T22:16:51.687Z,1.23
2019-03-17T22:19:22.252Z,1.77
2019-03-17T22:21:52.238Z,1.70
2019-03-17T22:24:23.498Z,1.43
2019-03-17T22:26:53.416Z,1.23
2019-03-17T22:29:24.741Z,1.33
2019-03-17T22:31:55.154Z,1.40
2019-03-17T22:34:26.409Z,1.30
2019-03-17T22:36:56.105Z,1.50
2019-03-17T22:39:26.032Z,1.30
2019-03-17T22:41:55.747Z,1.30
2019-03-17T22:44:28.008Z,1.70
2019-03-17T22:46:56.773Z,1.40
2019-03-17T22:49:26.598Z,1.70
2019-03-17T22:51:56.311Z,1.37
2019-03-17T22:54:26.094Z,1.40
2019-03-17T22:56:55.791Z,1.20
2019-03-17T22:59:25.448Z,1.37
2019-03-17T23:01:55.177Z,1.93
2019-03-17T23:04:25.406Z,1.77
2019-03-17T23:06:54.939Z,1.20
2019-03-17T23:09:24.616Z,1.40
2019-03-17T23:11:54.199Z,0.90
2019-03-17T23:14:35.907Z,0.97
2019-03-17T23:16:55.712Z,1.00
2019-03-17T23:19:25.485Z,0.93
2019-03-17T23:21:55.089Z,1.00
2019-03-17T23:24:24.848Z,0.80
2019-03-17T23:26:54.427Z,1.20
2019-03-17T23:29:24.211Z,1.10
2019-03-17T23:31:53.927Z,1.30
2019-03-17T23:34:24.922Z,1.30
2019-03-17T23:36:54.454Z,0.93
2019-03-17T23:39:24.813Z,0.93
2019-03-17T23:41:54.468Z,1.00
2019-03-17T23:44:24.598Z,1.00
2019-03-17T23:46:55.033Z,1.30
2019-03-17T23:49:25.101Z,1.13
2019-03-17T23:51:54.999Z,0.87
2019-03-17T23:54:24.955Z,0.90
2019-03-17T23:56:54.574Z,1.00
2019-03-17T23:59:24.919Z,0.90
